This is the latest recevied weather packets stored in our database for station/object EA3CO-11. If no packets are shown the sender has not sent any weather packets the latest 10 day(s).
| Time | Temp. | Humidity | Pressure | Rain* | Wind** | Luminosity | Snow |
|---|---|---|---|---|---|---|---|
| 1777653157 | 17.78° C | 71% | 1024.4 hPa | - | - | - | - |
| 1777652257 | 18.33° C | 68% | 1024.4 hPa | - | - | - | - |
| 1777651357 | 18.33° C | 66% | 1024.2 hPa | - | - | - | - |
| 1777650457 | 18.33° C | 64% | 1024.3 hPa | - | - | - | - |
| 1777649557 | 19.44° C | 60% | 1024.3 hPa | - | - | - | - |
| 1777648656 | 18.33° C | 60% | 1024.3 hPa | - | - | - | - |
| 1777647756 | 18.89° C | 58% | 1024.2 hPa | - | - | - | - |
| 1777646856 | 19.44° C | 54% | 1024.2 hPa | - | - | - | - |
| 1777645962 | 20° C | 54% | 1024.2 hPa | - | - | - | - |
| 1777645062 | 18.89° C | 55% | 1024.2 hPa | - | - | - | - |
| 1777644162 | 19.44° C | 55% | 1024.4 hPa | - | - | - | - |
| 1777643256 | 20.56° C | 51% | 1024.5 hPa | - | - | - | - |
| 1777642356 | 20.56° C | 51% | 1024.4 hPa | - | - | - | - |
| 1777641455 | 20.56° C | 50% | 1024.4 hPa | - | - | - | - |
| 1777640555 | 21.67° C | 49% | 1024.4 hPa | - | - | - | - |
| 1777639655 | 21.67° C | 48% | 1024.5 hPa | - | - | - | - |
| 1777638755 | 23.33° C | 45% | 1024.4 hPa | - | - | - | - |
| 1777637861 | 21.11° C | 53% | 1024.4 hPa | - | - | - | - |
| 1777636961 | 21.67° C | 53% | 1024.5 hPa | - | - | - | - |
| 1777636060 | 22.22° C | 51% | 1024.5 hPa | - | - | - | - |
| 1777634401 | 22.22° C | 50% | 1024.5 hPa | - | - | - | - |
| 1777633467 | 22.78° C | 49% | 1024.5 hPa | - | - | - | - |
| 1777631670 | 21.67° C | 52% | 1024.7 hPa | - | - | - | - |
| 1777630766 | 21.67° C | 53% | 1024.7 hPa | - | - | - | - |
| 1777629866 | 22.78° C | 50% | 1024.7 hPa | - | - | - | - |
* Rain since midnight (hover to see other rain measurements)
** Current wind speed in m/s (hover to see current wind gust speed)